sensor_id;sensor_type;location;lat;lon;timestamp;temperature;humidity
52621;DHT22;38515;53.160;6.990;2023-07-08T00:00:25;16.70;99.90
52621;DHT22;38515;53.160;6.990;2023-07-08T00:02:51;16.70;99.90
52621;DHT22;38515;53.160;6.990;2023-07-08T00:05:19;16.70;99.90
52621;DHT22;38515;53.160;6.990;2023-07-08T00:07:46;16.70;99.90
52621;DHT22;38515;53.160;6.990;2023-07-08T00:10:22;16.60;99.90
52621;DHT22;38515;53.160;6.990;2023-07-08T00:12:54;16.60;99.90
52621;DHT22;38515;53.160;6.990;2023-07-08T00:15:26;16.60;99.90
52621;DHT22;38515;53.160;6.990;2023-07-08T00:17:52;16.60;99.90
52621;DHT22;38515;53.160;6.990;2023-07-08T00:20:23;16.60;99.90
52621;DHT22;38515;53.160;6.990;2023-07-08T00:22:54;16.50;99.90
52621;DHT22;38515;53.160;6.990;2023-07-08T00:25:20;16.50;99.90
52621;DHT22;38515;53.160;6.990;2023-07-08T00:27:47;16.50;99.90
52621;DHT22;38515;53.160;6.990;2023-07-08T00:30:25;16.50;99.90
52621;DHT22;38515;53.160;6.990;2023-07-08T00:32:51;16.50;99.90
52621;DHT22;38515;53.160;6.990;2023-07-08T00:35:28;16.50;99.90
52621;DHT22;38515;53.160;6.990;2023-07-08T00:37:55;16.50;99.90
52621;DHT22;38515;53.160;6.990;2023-07-08T00:40:29;16.40;99.90
52621;DHT22;38515;53.160;6.990;2023-07-08T00:42:56;16.40;99.90
52621;DHT22;38515;53.160;6.990;2023-07-08T00:48:24;16.40;99.90
52621;DHT22;38515;53.160;6.990;2023-07-08T00:50:51;16.40;99.90
52621;DHT22;38515;53.160;6.990;2023-07-08T00:53:27;16.30;99.90
52621;DHT22;38515;53.160;6.990;2023-07-08T00:56:12;16.30;99.90
52621;DHT22;38515;53.160;6.990;2023-07-08T00:59:05;16.30;99.90
52621;DHT22;38515;53.160;6.990;2023-07-08T01:01:31;16.30;99.90
52621;DHT22;38515;53.160;6.990;2023-07-08T01:04:04;16.20;99.90
52621;DHT22;38515;53.160;6.990;2023-07-08T01:06:34;16.20;99.90
52621;DHT22;38515;53.160;6.990;2023-07-08T01:09:06;16.20;99.90
52621;DHT22;38515;53.160;6.990;2023-07-08T01:11:36;16.20;99.90
52621;DHT22;38515;53.160;6.990;2023-07-08T01:14:04;16.20;99.90
52621;DHT22;38515;53.160;6.990;2023-07-08T01:16:32;16.20;99.90
52621;DHT22;38515;53.160;6.990;2023-07-08T01:19:03;16.20;99.90
52621;DHT22;38515;53.160;6.990;2023-07-08T01:21:36;16.20;99.90
52621;DHT22;38515;53.160;6.990;2023-07-08T01:24:04;16.20;99.90
52621;DHT22;38515;53.160;6.990;2023-07-08T01:26:34;16.20;99.90
52621;DHT22;38515;53.160;6.990;2023-07-08T01:29:01;16.20;99.90
52621;DHT22;38515;53.160;6.990;2023-07-08T01:31:28;16.20;99.90
52621;DHT22;38515;53.160;6.990;2023-07-08T01:33:54;16.20;99.90
52621;DHT22;38515;53.160;6.990;2023-07-08T01:36:21;16.20;99.90
52621;DHT22;38515;53.160;6.990;2023-07-08T01:38:47;16.20;99.90
52621;DHT22;38515;53.160;6.990;2023-07-08T01:41:15;16.20;99.90
52621;DHT22;38515;53.160;6.990;2023-07-08T01:43:41;16.20;99.90
52621;DHT22;38515;53.160;6.990;2023-07-08T01:46:26;16.20;99.90
52621;DHT22;38515;53.160;6.990;2023-07-08T01:48:56;16.20;99.90
52621;DHT22;38515;53.160;6.990;2023-07-08T01:51:24;16.20;99.90
52621;DHT22;38515;53.160;6.990;2023-07-08T01:53:51;16.20;99.90
52621;DHT22;38515;53.160;6.990;2023-07-08T01:56:17;16.20;99.90
52621;DHT22;38515;53.160;6.990;2023-07-08T01:58:43;16.10;99.90
52621;DHT22;38515;53.160;6.990;2023-07-08T02:01:09;16.10;99.90
52621;DHT22;38515;53.160;6.990;2023-07-08T02:03:35;16.10;99.90
52621;DHT22;38515;53.160;6.990;2023-07-08T02:06:02;16.10;99.90
52621;DHT22;38515;53.160;6.990;2023-07-08T02:08:28;16.10;99.90
52621;DHT22;38515;53.160;6.990;2023-07-08T02:10:58;16.10;99.90
52621;DHT22;38515;53.160;6.990;2023-07-08T02:13:24;16.10;99.90
52621;DHT22;38515;53.160;6.990;2023-07-08T02:15:51;16.00;99.90
52621;DHT22;38515;53.160;6.990;2023-07-08T02:18:17;16.00;99.90
52621;DHT22;38515;53.160;6.990;2023-07-08T02:20:45;16.00;99.90
52621;DHT22;38515;53.160;6.990;2023-07-08T02:23:11;16.00;99.90
52621;DHT22;38515;53.160;6.990;2023-07-08T02:25:37;16.00;99.90
52621;DHT22;38515;53.160;6.990;2023-07-08T02:28:03;15.90;99.90
52621;DHT22;38515;53.160;6.990;2023-07-08T02:30:29;16.00;99.90
52621;DHT22;38515;53.160;6.990;2023-07-08T02:32:55;15.90;99.90
52621;DHT22;38515;53.160;6.990;2023-07-08T02:35:29;15.90;99.90
52621;DHT22;38515;53.160;6.990;2023-07-08T02:37:57;15.90;99.90
52621;DHT22;38515;53.160;6.990;2023-07-08T02:40:25;15.90;99.90
52621;DHT22;38515;53.160;6.990;2023-07-08T02:42:51;15.90;99.90
52621;DHT22;38515;53.160;6.990;2023-07-08T02:45:17;15.80;99.90
52621;DHT22;38515;53.160;6.990;2023-07-08T02:47:43;15.80;99.90
52621;DHT22;38515;53.160;6.990;2023-07-08T02:50:10;15.80;99.90
52621;DHT22;38515;53.160;6.990;2023-07-08T02:52:36;15.80;99.90
52621;DHT22;38515;53.160;6.990;2023-07-08T02:55:03;15.80;99.90
52621;DHT22;38515;53.160;6.990;2023-07-08T02:57:29;15.80;99.90
52621;DHT22;38515;53.160;6.990;2023-07-08T02:59:54;15.80;99.90
52621;DHT22;38515;53.160;6.990;2023-07-08T03:02:23;15.80;99.90
52621;DHT22;38515;53.160;6.990;2023-07-08T03:04:50;15.80;99.90
52621;DHT22;38515;53.160;6.990;2023-07-08T03:07:16;15.80;99.90
52621;DHT22;38515;53.160;6.990;2023-07-08T03:09:43;15.90;99.90
52621;DHT22;38515;53.160;6.990;2023-07-08T03:12:11;15.80;99.90
52621;DHT22;38515;53.160;6.990;2023-07-08T03:14:37;15.80;99.90
52621;DHT22;38515;53.160;6.990;2023-07-08T03:17:04;15.80;99.90
52621;DHT22;38515;53.160;6.990;2023-07-08T03:19:30;15.90;99.90
52621;DHT22;38515;53.160;6.990;2023-07-08T03:21:56;15.80;99.90
52621;DHT22;38515;53.160;6.990;2023-07-08T03:24:22;15.80;99.90
52621;DHT22;38515;53.160;6.990;2023-07-08T03:26:48;15.80;99.90
52621;DHT22;38515;53.160;6.990;2023-07-08T03:29:21;15.90;99.90
52621;DHT22;38515;53.160;6.990;2023-07-08T03:31:47;15.90;99.90
52621;DHT22;38515;53.160;6.990;2023-07-08T03:34:15;15.80;99.90
52621;DHT22;38515;53.160;6.990;2023-07-08T03:36:46;15.80;99.90
52621;DHT22;38515;53.160;6.990;2023-07-08T03:39:20;15.80;99.90
52621;DHT22;38515;53.160;6.990;2023-07-08T03:41:48;15.80;99.90
52621;DHT22;38515;53.160;6.990;2023-07-08T03:44:14;15.80;99.90
52621;DHT22;38515;53.160;6.990;2023-07-08T03:46:44;15.70;99.90
52621;DHT22;38515;53.160;6.990;2023-07-08T03:49:11;15.80;99.90
52621;DHT22;38515;53.160;6.990;2023-07-08T03:51:39;15.80;99.90
52621;DHT22;38515;53.160;6.990;2023-07-08T03:54:08;15.80;99.90
52621;DHT22;38515;53.160;6.990;2023-07-08T03:56:34;15.80;99.90
52621;DHT22;38515;53.160;6.990;2023-07-08T03:59:00;15.80;99.90
52621;DHT22;38515;53.160;6.990;2023-07-08T04:01:27;15.80;99.90
52621;DHT22;38515;53.160;6.990;2023-07-08T04:03:54;15.80;99.90
52621;DHT22;38515;53.160;6.990;2023-07-08T04:06:21;15.80;99.90
52621;DHT22;38515;53.160;6.990;2023-07-08T04:08:47;15.80;99.90
52621;DHT22;38515;53.160;6.990;2023-07-08T04:11:16;15.80;99.90
52621;DHT22;38515;53.160;6.990;2023-07-08T04:13:42;15.80;99.90
52621;DHT22;38515;53.160;6.990;2023-07-08T04:16:22;15.80;99.90
52621;DHT22;38515;53.160;6.990;2023-07-08T04:18:49;15.80;99.90
52621;DHT22;38515;53.160;6.990;2023-07-08T04:21:19;15.80;99.90
52621;DHT22;38515;53.160;6.990;2023-07-08T04:23:45;15.90;99.90
52621;DHT22;38515;53.160;6.990;2023-07-08T04:26:11;15.90;99.90
52621;DHT22;38515;53.160;6.990;2023-07-08T04:28:37;15.90;99.90
52621;DHT22;38515;53.160;6.990;2023-07-08T04:31:03;15.90;99.90
52621;DHT22;38515;53.160;6.990;2023-07-08T04:33:30;15.90;99.90
52621;DHT22;38515;53.160;6.990;2023-07-08T04:35:56;15.90;99.90
52621;DHT22;38515;53.160;6.990;2023-07-08T04:38:24;16.00;99.90
52621;DHT22;38515;53.160;6.990;2023-07-08T04:40:51;16.00;99.90
52621;DHT22;38515;53.160;6.990;2023-07-08T04:43:18;16.00;99.90
52621;DHT22;38515;53.160;6.990;2023-07-08T04:45:48;16.10;99.90
52621;DHT22;38515;53.160;6.990;2023-07-08T04:48:20;16.10;99.90
52621;DHT22;38515;53.160;6.990;2023-07-08T04:50:48;16.10;99.90
52621;DHT22;38515;53.160;6.990;2023-07-08T04:53:15;16.20;99.90
52621;DHT22;38515;53.160;6.990;2023-07-08T04:55:47;16.20;99.90
52621;DHT22;38515;53.160;6.990;2023-07-08T04:58:13;16.20;99.90
52621;DHT22;38515;53.160;6.990;2023-07-08T05:00:39;16.30;99.90
52621;DHT22;38515;53.160;6.990;2023-07-08T05:03:05;16.30;99.90
52621;DHT22;38515;53.160;6.990;2023-07-08T05:05:31;16.40;99.90
52621;DHT22;38515;53.160;6.990;2023-07-08T05:07:57;16.40;99.90
52621;DHT22;38515;53.160;6.990;2023-07-08T05:10:23;16.50;99.90
52621;DHT22;38515;53.160;6.990;2023-07-08T05:12:49;16.50;99.90
52621;DHT22;38515;53.160;6.990;2023-07-08T05:15:16;16.60;99.90
52621;DHT22;38515;53.160;6.990;2023-07-08T05:17:42;16.70;99.90
52621;DHT22;38515;53.160;6.990;2023-07-08T05:20:10;16.70;99.90
52621;DHT22;38515;53.160;6.990;2023-07-08T05:22:36;16.80;99.90
52621;DHT22;38515;53.160;6.990;2023-07-08T05:25:03;16.90;99.90
52621;DHT22;38515;53.160;6.990;2023-07-08T05:27:31;16.90;99.90
52621;DHT22;38515;53.160;6.990;2023-07-08T05:30:03;17.00;99.90
52621;DHT22;38515;53.160;6.990;2023-07-08T05:32:29;17.10;99.90
52621;DHT22;38515;53.160;6.990;2023-07-08T05:34:55;17.20;99.90
52621;DHT22;38515;53.160;6.990;2023-07-08T05:37:21;17.20;99.90
52621;DHT22;38515;53.160;6.990;2023-07-08T05:39:56;17.40;99.90
52621;DHT22;38515;53.160;6.990;2023-07-08T05:42:23;17.50;99.90
52621;DHT22;38515;53.160;6.990;2023-07-08T05:44:49;17.60;99.90
52621;DHT22;38515;53.160;6.990;2023-07-08T05:47:17;17.70;99.90
52621;DHT22;38515;53.160;6.990;2023-07-08T05:49:43;17.90;99.90
52621;DHT22;38515;53.160;6.990;2023-07-08T05:52:09;18.20;99.90
52621;DHT22;38515;53.160;6.990;2023-07-08T05:54:38;18.60;99.90
52621;DHT22;38515;53.160;6.990;2023-07-08T05:57:08;18.90;99.90
52621;DHT22;38515;53.160;6.990;2023-07-08T05:59:35;19.40;99.90
52621;DHT22;38515;53.160;6.990;2023-07-08T06:02:02;19.70;99.90
52621;DHT22;38515;53.160;6.990;2023-07-08T06:04:28;20.10;99.90
52621;DHT22;38515;53.160;6.990;2023-07-08T06:06:57;20.40;99.90
52621;DHT22;38515;53.160;6.990;2023-07-08T06:09:23;20.70;99.90
52621;DHT22;38515;53.160;6.990;2023-07-08T06:11:49;21.10;99.90
52621;DHT22;38515;53.160;6.990;2023-07-08T06:14:14;21.40;99.90
52621;DHT22;38515;53.160;6.990;2023-07-08T06:16:40;21.80;99.90
52621;DHT22;38515;53.160;6.990;2023-07-08T06:19:06;21.90;99.90
52621;DHT22;38515;53.160;6.990;2023-07-08T06:21:32;22.00;99.90
52621;DHT22;38515;53.160;6.990;2023-07-08T06:23:58;22.10;99.90
52621;DHT22;38515;53.160;6.990;2023-07-08T06:26:24;22.20;99.90
52621;DHT22;38515;53.160;6.990;2023-07-08T06:28:50;22.30;99.90
52621;DHT22;38515;53.160;6.990;2023-07-08T06:31:16;22.40;99.90
52621;DHT22;38515;53.160;6.990;2023-07-08T06:33:42;22.50;99.90
52621;DHT22;38515;53.160;6.990;2023-07-08T06:36:08;22.50;99.90
52621;DHT22;38515;53.160;6.990;2023-07-08T06:38:34;22.60;99.90
52621;DHT22;38515;53.160;6.990;2023-07-08T06:41:00;22.60;99.90
52621;DHT22;38515;53.160;6.990;2023-07-08T06:43:26;22.50;99.90
52621;DHT22;38515;53.160;6.990;2023-07-08T06:45:54;22.50;99.90
52621;DHT22;38515;53.160;6.990;2023-07-08T06:48:20;22.50;99.90
52621;DHT22;38515;53.160;6.990;2023-07-08T06:50:48;22.50;99.90
52621;DHT22;38515;53.160;6.990;2023-07-08T06:53:15;22.60;99.90
52621;DHT22;38515;53.160;6.990;2023-07-08T06:55:41;22.70;99.90
52621;DHT22;38515;53.160;6.990;2023-07-08T06:58:07;22.70;99.90
52621;DHT22;38515;53.160;6.990;2023-07-08T07:00:32;22.80;99.90
52621;DHT22;38515;53.160;6.990;2023-07-08T07:02:58;22.90;99.90
52621;DHT22;38515;53.160;6.990;2023-07-08T07:05:24;22.90;99.90
52621;DHT22;38515;53.160;6.990;2023-07-08T07:07:50;22.80;99.90
52621;DHT22;38515;53.160;6.990;2023-07-08T07:10:18;22.70;99.90
52621;DHT22;38515;53.160;6.990;2023-07-08T07:12:44;22.80;99.90
52621;DHT22;38515;53.160;6.990;2023-07-08T07:15:10;22.80;99.90
52621;DHT22;38515;53.160;6.990;2023-07-08T07:17:36;23.10;99.90
52621;DHT22;38515;53.160;6.990;2023-07-08T07:20:05;23.30;99.90
52621;DHT22;38515;53.160;6.990;2023-07-08T07:22:31;23.40;99.90
52621;DHT22;38515;53.160;6.990;2023-07-08T07:24:57;23.40;99.90
52621;DHT22;38515;53.160;6.990;2023-07-08T07:27:23;23.60;99.90
52621;DHT22;38515;53.160;6.990;2023-07-08T07:29:50;23.70;99.90
52621;DHT22;38515;53.160;6.990;2023-07-08T07:32:18;23.70;99.30
52621;DHT22;38515;53.160;6.990;2023-07-08T07:34:48;23.80;99.10
52621;DHT22;38515;53.160;6.990;2023-07-08T07:37:15;23.70;98.70
52621;DHT22;38515;53.160;6.990;2023-07-08T07:39:42;23.70;98.80
52621;DHT22;38515;53.160;6.990;2023-07-08T07:42:08;23.70;98.80
52621;DHT22;38515;53.160;6.990;2023-07-08T07:44:35;23.80;98.50
52621;DHT22;38515;53.160;6.990;2023-07-08T07:47:02;23.90;98.60
52621;DHT22;38515;53.160;6.990;2023-07-08T07:49:28;24.00;98.60
52621;DHT22;38515;53.160;6.990;2023-07-08T07:51:53;24.20;98.10
52621;DHT22;38515;53.160;6.990;2023-07-08T07:54:19;24.30;98.20
52621;DHT22;38515;53.160;6.990;2023-07-08T07:56:45;24.40;98.00
52621;DHT22;38515;53.160;6.990;2023-07-08T07:59:11;24.50;97.70
52621;DHT22;38515;53.160;6.990;2023-07-08T08:01:37;24.60;97.30
52621;DHT22;38515;53.160;6.990;2023-07-08T08:04:04;24.70;96.70
52621;DHT22;38515;53.160;6.990;2023-07-08T08:06:30;24.70;97.00
52621;DHT22;38515;53.160;6.990;2023-07-08T08:08:55;24.80;97.00
52621;DHT22;38515;53.160;6.990;2023-07-08T08:11:24;24.90;96.70
52621;DHT22;38515;53.160;6.990;2023-07-08T08:13:52;24.90;96.60
52621;DHT22;38515;53.160;6.990;2023-07-08T08:16:22;25.00;96.40
52621;DHT22;38515;53.160;6.990;2023-07-08T08:18:48;25.10;96.60
52621;DHT22;38515;53.160;6.990;2023-07-08T08:21:14;25.20;96.20
52621;DHT22;38515;53.160;6.990;2023-07-08T08:23:40;25.20;95.80
52621;DHT22;38515;53.160;6.990;2023-07-08T08:26:06;25.30;95.50
52621;DHT22;38515;53.160;6.990;2023-07-08T08:28:32;25.30;95.60
52621;DHT22;38515;53.160;6.990;2023-07-08T08:30:57;25.30;95.00
52621;DHT22;38515;53.160;6.990;2023-07-08T08:33:23;25.40;95.10
52621;DHT22;38515;53.160;6.990;2023-07-08T08:35:49;25.60;95.10
52621;DHT22;38515;53.160;6.990;2023-07-08T08:38:15;25.60;94.90
52621;DHT22;38515;53.160;6.990;2023-07-08T08:40:43;25.70;94.30
52621;DHT22;38515;53.160;6.990;2023-07-08T08:43:26;25.70;94.30
52621;DHT22;38515;53.160;6.990;2023-07-08T08:46:06;25.80;94.30
52621;DHT22;38515;53.160;6.990;2023-07-08T08:48:43;26.00;94.20
52621;DHT22;38515;53.160;6.990;2023-07-08T08:51:15;26.10;93.60
52621;DHT22;38515;53.160;6.990;2023-07-08T08:53:42;26.10;93.40
52621;DHT22;38515;53.160;6.990;2023-07-08T08:56:21;26.30;94.00
52621;DHT22;38515;53.160;6.990;2023-07-08T08:58:58;26.50;94.10
52621;DHT22;38515;53.160;6.990;2023-07-08T09:01:27;26.70;93.40
52621;DHT22;38515;53.160;6.990;2023-07-08T09:04:01;26.80;93.20
52621;DHT22;38515;53.160;6.990;2023-07-08T09:06:31;26.80;92.40
52621;DHT22;38515;53.160;6.990;2023-07-08T09:09:03;26.90;93.00
52621;DHT22;38515;53.160;6.990;2023-07-08T09:14:27;27.10;92.50
52621;DHT22;38515;53.160;6.990;2023-07-08T09:20:13;27.10;90.70
52621;DHT22;38515;53.160;6.990;2023-07-08T09:22:40;27.20;90.60
52621;DHT22;38515;53.160;6.990;2023-07-08T09:25:39;27.30;90.50
52621;DHT22;38515;53.160;6.990;2023-07-08T09:28:08;27.40;91.10
52621;DHT22;38515;53.160;6.990;2023-07-08T09:30:34;27.60;91.20
52621;DHT22;38515;53.160;6.990;2023-07-08T09:33:04;27.70;91.00
52621;DHT22;38515;53.160;6.990;2023-07-08T09:35:43;27.80;90.10
52621;DHT22;38515;53.160;6.990;2023-07-08T09:38:15;27.90;88.30
52621;DHT22;38515;53.160;6.990;2023-07-08T09:40:48;28.00;87.30
52621;DHT22;38515;53.160;6.990;2023-07-08T09:43:26;27.90;86.70
52621;DHT22;38515;53.160;6.990;2023-07-08T09:45:58;27.90;86.40
52621;DHT22;38515;53.160;6.990;2023-07-08T09:48:36;28.00;86.50
52621;DHT22;38515;53.160;6.990;2023-07-08T09:51:03;28.00;86.80
52621;DHT22;38515;53.160;6.990;2023-07-08T09:53:29;28.10;86.70
52621;DHT22;38515;53.160;6.990;2023-07-08T09:56:00;28.10;86.20
52621;DHT22;38515;53.160;6.990;2023-07-08T09:58:32;28.20;85.60
52621;DHT22;38515;53.160;6.990;2023-07-08T10:01:08;28.20;84.40
52621;DHT22;38515;53.160;6.990;2023-07-08T10:03:35;28.20;84.50
52621;DHT22;38515;53.160;6.990;2023-07-08T10:06:18;28.20;83.70
52621;DHT22;38515;53.160;6.990;2023-07-08T10:08:46;28.40;82.00
52621;DHT22;38515;53.160;6.990;2023-07-08T10:13:50;28.70;84.70
52621;DHT22;38515;53.160;6.990;2023-07-08T10:16:28;28.90;83.70
52621;DHT22;38515;53.160;6.990;2023-07-08T10:18:55;29.00;81.40
52621;DHT22;38515;53.160;6.990;2023-07-08T10:35:12;29.00;79.60
52621;DHT22;38515;53.160;6.990;2023-07-08T10:48:56;29.00;79.00
52621;DHT22;38515;53.160;6.990;2023-07-08T10:56:51;29.50;79.00
52621;DHT22;38515;53.160;6.990;2023-07-08T10:59:44;29.40;78.70
52621;DHT22;38515;53.160;6.990;2023-07-08T11:07:58;29.60;79.70
52621;DHT22;38515;53.160;6.990;2023-07-08T11:11:06;29.60;78.70
52621;DHT22;38515;53.160;6.990;2023-07-08T11:13:39;29.70;78.60
52621;DHT22;38515;53.160;6.990;2023-07-08T11:16:30;29.70;78.30
52621;DHT22;38515;53.160;6.990;2023-07-08T11:19:26;29.80;77.80
52621;DHT22;38515;53.160;6.990;2023-07-08T11:21:54;29.70;77.70
52621;DHT22;38515;53.160;6.990;2023-07-08T11:24:45;29.70;77.00
52621;DHT22;38515;53.160;6.990;2023-07-08T11:27:18;29.80;77.30
52621;DHT22;38515;53.160;6.990;2023-07-08T11:32:22;29.80;75.40
52621;DHT22;38515;53.160;6.990;2023-07-08T11:34:50;30.00;76.10
52621;DHT22;38515;53.160;6.990;2023-07-08T11:37:18;30.00;75.40
52621;DHT22;38515;53.160;6.990;2023-07-08T11:39:52;30.00;75.40
52621;DHT22;38515;53.160;6.990;2023-07-08T11:44:58;30.00;75.40
52621;DHT22;38515;53.160;6.990;2023-07-08T11:47:34;30.00;74.00
52621;DHT22;38515;53.160;6.990;2023-07-08T11:50:01;29.90;72.90
52621;DHT22;38515;53.160;6.990;2023-07-08T11:52:29;29.80;72.60
52621;DHT22;38515;53.160;6.990;2023-07-08T11:55:19;29.90;72.70
52621;DHT22;38515;53.160;6.990;2023-07-08T11:57:52;30.00;74.60
52621;DHT22;38515;53.160;6.990;2023-07-08T12:00:24;30.10;73.20
52621;DHT22;38515;53.160;6.990;2023-07-08T12:02:57;30.20;73.60
52621;DHT22;38515;53.160;6.990;2023-07-08T12:05:37;30.30;71.80
52621;DHT22;38515;53.160;6.990;2023-07-08T12:08:15;30.30;70.90
52621;DHT22;38515;53.160;6.990;2023-07-08T12:10:50;30.40;73.20
52621;DHT22;38515;53.160;6.990;2023-07-08T12:13:19;30.40;71.60
52621;DHT22;38515;53.160;6.990;2023-07-08T12:15:47;30.40;70.50
52621;DHT22;38515;53.160;6.990;2023-07-08T12:18:16;30.30;70.20
52621;DHT22;38515;53.160;6.990;2023-07-08T12:20:46;30.30;70.60
52621;DHT22;38515;53.160;6.990;2023-07-08T12:23:19;30.30;70.30
52621;DHT22;38515;53.160;6.990;2023-07-08T12:25:47;30.30;70.20
52621;DHT22;38515;53.160;6.990;2023-07-08T12:28:14;30.30;70.80
52621;DHT22;38515;53.160;6.990;2023-07-08T12:30:42;30.40;69.40
52621;DHT22;38515;53.160;6.990;2023-07-08T12:33:12;30.40;69.10
52621;DHT22;38515;53.160;6.990;2023-07-08T12:35:40;30.50;69.40
52621;DHT22;38515;53.160;6.990;2023-07-08T12:38:19;30.50;69.40
52621;DHT22;38515;53.160;6.990;2023-07-08T12:40:46;30.50;69.50
52621;DHT22;38515;53.160;6.990;2023-07-08T12:43:12;30.60;69.80
52621;DHT22;38515;53.160;6.990;2023-07-08T12:45:40;30.60;69.50
52621;DHT22;38515;53.160;6.990;2023-07-08T12:48:06;30.60;70.30
52621;DHT22;38515;53.160;6.990;2023-07-08T12:50:31;30.60;70.70
52621;DHT22;38515;53.160;6.990;2023-07-08T12:52:57;30.70;69.50
52621;DHT22;38515;53.160;6.990;2023-07-08T12:55:23;30.70;69.50
52621;DHT22;38515;53.160;6.990;2023-07-08T12:57:51;30.70;69.20
52621;DHT22;38515;53.160;6.990;2023-07-08T13:00:28;30.70;68.00
52621;DHT22;38515;53.160;6.990;2023-07-08T13:03:07;30.60;67.60
52621;DHT22;38515;53.160;6.990;2023-07-08T13:05:34;30.60;67.20
52621;DHT22;38515;53.160;6.990;2023-07-08T13:08:00;30.60;67.20
52621;DHT22;38515;53.160;6.990;2023-07-08T13:10:28;30.60;67.00
52621;DHT22;38515;53.160;6.990;2023-07-08T13:12:58;30.60;67.50
52621;DHT22;38515;53.160;6.990;2023-07-08T13:15:31;30.60;67.80
52621;DHT22;38515;53.160;6.990;2023-07-08T13:17:59;30.60;67.50
52621;DHT22;38515;53.160;6.990;2023-07-08T13:20:25;30.60;67.40
52621;DHT22;38515;53.160;6.990;2023-07-08T13:22:57;30.50;67.40
52621;DHT22;38515;53.160;6.990;2023-07-08T13:25:32;30.60;67.70
52621;DHT22;38515;53.160;6.990;2023-07-08T13:28:13;30.60;66.80
52621;DHT22;38515;53.160;6.990;2023-07-08T13:30:50;30.60;67.20
52621;DHT22;38515;53.160;6.990;2023-07-08T13:33:17;30.60;67.20
52621;DHT22;38515;53.160;6.990;2023-07-08T13:35:43;30.70;67.60
52621;DHT22;38515;53.160;6.990;2023-07-08T13:38:18;30.70;67.50
52621;DHT22;38515;53.160;6.990;2023-07-08T13:40:47;30.70;67.00
52621;DHT22;38515;53.160;6.990;2023-07-08T13:43:23;30.70;66.80
52621;DHT22;38515;53.160;6.990;2023-07-08T13:45:50;30.70;66.00
52621;DHT22;38515;53.160;6.990;2023-07-08T13:48:40;30.70;66.70
52621;DHT22;38515;53.160;6.990;2023-07-08T13:51:21;30.70;68.00
52621;DHT22;38515;53.160;6.990;2023-07-08T13:54:00;30.70;66.90
52621;DHT22;38515;53.160;6.990;2023-07-08T13:56:33;30.70;67.00
52621;DHT22;38515;53.160;6.990;2023-07-08T13:59:08;30.70;66.90
52621;DHT22;38515;53.160;6.990;2023-07-08T14:01:40;30.70;66.60
52621;DHT22;38515;53.160;6.990;2023-07-08T14:04:06;30.80;65.40
52621;DHT22;38515;53.160;6.990;2023-07-08T14:06:36;30.80;65.90
52621;DHT22;38515;53.160;6.990;2023-07-08T14:09:15;30.80;65.70
52621;DHT22;38515;53.160;6.990;2023-07-08T14:11:45;30.90;65.50
52621;DHT22;38515;53.160;6.990;2023-07-08T14:14:11;30.80;65.40
52621;DHT22;38515;53.160;6.990;2023-07-08T14:16:47;30.80;65.40
52621;DHT22;38515;53.160;6.990;2023-07-08T14:19:26;30.80;64.40
52621;DHT22;38515;53.160;6.990;2023-07-08T14:24:39;30.90;64.60
52621;DHT22;38515;53.160;6.990;2023-07-08T14:27:08;31.00;64.70
52621;DHT22;38515;53.160;6.990;2023-07-08T14:29:45;31.10;63.70
52621;DHT22;38515;53.160;6.990;2023-07-08T14:32:23;31.10;63.00
52621;DHT22;38515;53.160;6.990;2023-07-08T14:35:09;31.20;61.50
52621;DHT22;38515;53.160;6.990;2023-07-08T14:37:37;31.10;60.20
52621;DHT22;38515;53.160;6.990;2023-07-08T14:42:40;31.10;61.10
52621;DHT22;38515;53.160;6.990;2023-07-08T14:45:08;31.10;60.70
52621;DHT22;38515;53.160;6.990;2023-07-08T14:47:34;31.20;60.90
52621;DHT22;38515;53.160;6.990;2023-07-08T14:50:01;31.10;61.20
52621;DHT22;38515;53.160;6.990;2023-07-08T14:52:35;31.20;61.50
52621;DHT22;38515;53.160;6.990;2023-07-08T14:55:01;31.20;60.80
52621;DHT22;38515;53.160;6.990;2023-07-08T14:57:31;31.20;60.40
52621;DHT22;38515;53.160;6.990;2023-07-08T15:00:00;31.20;59.70
52621;DHT22;38515;53.160;6.990;2023-07-08T15:02:26;31.20;59.90
52621;DHT22;38515;53.160;6.990;2023-07-08T15:04:52;31.20;60.00
52621;DHT22;38515;53.160;6.990;2023-07-08T15:07:19;31.20;59.70
52621;DHT22;38515;53.160;6.990;2023-07-08T15:09:45;31.10;59.40
52621;DHT22;38515;53.160;6.990;2023-07-08T15:12:12;31.20;59.60
52621;DHT22;38515;53.160;6.990;2023-07-08T15:14:38;31.20;60.00
52621;DHT22;38515;53.160;6.990;2023-07-08T15:17:11;31.20;60.00
52621;DHT22;38515;53.160;6.990;2023-07-08T15:19:38;31.20;59.40
52621;DHT22;38515;53.160;6.990;2023-07-08T15:22:04;31.20;59.60
52621;DHT22;38515;53.160;6.990;2023-07-08T15:24:30;31.20;59.30
52621;DHT22;38515;53.160;6.990;2023-07-08T15:26:56;31.20;59.00
52621;DHT22;38515;53.160;6.990;2023-07-08T15:29:23;31.30;59.20
52621;DHT22;38515;53.160;6.990;2023-07-08T15:31:49;31.30;59.60
52621;DHT22;38515;53.160;6.990;2023-07-08T15:34:18;31.30;59.60
52621;DHT22;38515;53.160;6.990;2023-07-08T15:36:44;31.30;59.60
52621;DHT22;38515;53.160;6.990;2023-07-08T15:39:10;31.40;60.40
52621;DHT22;38515;53.160;6.990;2023-07-08T15:41:36;31.40;59.90
52621;DHT22;38515;53.160;6.990;2023-07-08T15:44:04;31.40;59.20
52621;DHT22;38515;53.160;6.990;2023-07-08T15:46:34;31.40;60.00
52621;DHT22;38515;53.160;6.990;2023-07-08T15:49:04;31.40;60.50
52621;DHT22;38515;53.160;6.990;2023-07-08T15:51:35;31.40;59.90
52621;DHT22;38515;53.160;6.990;2023-07-08T15:54:01;31.50;59.40
52621;DHT22;38515;53.160;6.990;2023-07-08T15:56:27;31.50;59.00
52621;DHT22;38515;53.160;6.990;2023-07-08T15:58:53;31.40;59.70
52621;DHT22;38515;53.160;6.990;2023-07-08T16:01:22;31.50;59.30
52621;DHT22;38515;53.160;6.990;2023-07-08T16:03:49;31.50;58.80
52621;DHT22;38515;53.160;6.990;2023-07-08T16:06:16;31.50;59.50
52621;DHT22;38515;53.160;6.990;2023-07-08T16:08:43;31.50;59.70
52621;DHT22;38515;53.160;6.990;2023-07-08T16:11:15;31.60;59.60
52621;DHT22;38515;53.160;6.990;2023-07-08T16:13:42;31.60;59.60
52621;DHT22;38515;53.160;6.990;2023-07-08T16:16:11;31.60;59.70
52621;DHT22;38515;53.160;6.990;2023-07-08T16:18:37;31.60;59.40
52621;DHT22;38515;53.160;6.990;2023-07-08T16:21:03;31.70;58.80
52621;DHT22;38515;53.160;6.990;2023-07-08T16:23:32;31.70;58.60
52621;DHT22;38515;53.160;6.990;2023-07-08T16:26:00;31.70;58.30
52621;DHT22;38515;53.160;6.990;2023-07-08T16:30:58;31.70;59.10
52621;DHT22;38515;53.160;6.990;2023-07-08T16:33:24;31.70;59.00
52621;DHT22;38515;53.160;6.990;2023-07-08T16:35:50;31.70;59.00
52621;DHT22;38515;53.160;6.990;2023-07-08T16:38:16;31.70;58.70
52621;DHT22;38515;53.160;6.990;2023-07-08T16:40:42;31.70;58.20
52621;DHT22;38515;53.160;6.990;2023-07-08T16:43:29;31.70;58.50